createdAt,value
2022-12-22T00:01:59.502Z,22.35
2022-12-22T00:04:45.127Z,22.36
2022-12-22T00:07:30.455Z,22.35
2022-12-22T00:10:15.764Z,22.35
2022-12-22T00:13:01.129Z,22.33
2022-12-22T00:15:46.801Z,22.32
2022-12-22T00:18:33.721Z,22.32
2022-12-22T00:21:19.240Z,22.31
2022-12-22T00:24:04.857Z,22.29
2022-12-22T00:26:51.076Z,22.28
2022-12-22T00:29:36.678Z,22.29
2022-12-22T00:32:22.391Z,22.29
2022-12-22T00:35:09.232Z,22.29
2022-12-22T00:37:55.677Z,22.28
2022-12-22T00:40:41.660Z,22.29
2022-12-22T00:43:27.348Z,22.27
2022-12-22T00:46:12.716Z,22.26
2022-12-22T00:48:58.362Z,22.26
2022-12-22T00:51:45.252Z,22.26
2022-12-22T00:54:31.397Z,22.25
2022-12-22T00:57:17.179Z,22.25
2022-12-22T01:00:02.990Z,22.24
2022-12-22T01:02:48.466Z,22.24
2022-12-22T01:05:34.408Z,22.24
2022-12-22T01:08:21.375Z,22.22
2022-12-22T01:11:06.714Z,22.22
2022-12-22T01:13:52.036Z,22.21
2022-12-22T01:16:37.570Z,22.21
2022-12-22T01:19:22.894Z,22.20
2022-12-22T01:22:08.291Z,22.19
2022-12-22T01:24:55.294Z,22.18
2022-12-22T01:27:41.028Z,22.19
2022-12-22T01:30:28.332Z,22.17
2022-12-22T01:33:13.913Z,22.17
2022-12-22T01:35:59.263Z,22.16
2022-12-22T01:38:44.792Z,22.16
2022-12-22T01:41:34.845Z,22.15
2022-12-22T01:44:20.271Z,22.15
2022-12-22T01:47:06.130Z,22.15
2022-12-22T01:49:53.857Z,22.13
2022-12-22T01:52:41.759Z,22.12
2022-12-22T01:55:28.943Z,22.11
2022-12-22T01:58:15.749Z,22.12
2022-12-22T02:01:01.457Z,22.12
2022-12-22T02:03:46.772Z,22.10
2022-12-22T02:06:35.590Z,22.10
2022-12-22T02:09:36.089Z,22.09
2022-12-22T02:12:23.973Z,22.08
2022-12-22T02:15:15.609Z,22.06
2022-12-22T02:18:04.039Z,22.05
2022-12-22T02:20:58.983Z,22.04
2022-12-22T02:23:58.749Z,22.05
2022-12-22T02:26:46.902Z,22.02
2022-12-22T02:29:32.797Z,22.02
2022-12-22T02:32:18.089Z,22.02
2022-12-22T02:35:03.391Z,22.02
2022-12-22T02:37:55.054Z,22.00
2022-12-22T02:40:44.511Z,22.00
2022-12-22T02:43:34.003Z,22.00
2022-12-22T02:46:20.698Z,22.00
2022-12-22T02:49:08.817Z,21.97
2022-12-22T02:51:55.086Z,21.98
2022-12-22T02:54:40.271Z,21.97
2022-12-22T02:57:25.748Z,21.98
2022-12-22T03:00:12.812Z,21.95
2022-12-22T03:02:58.471Z,21.96
2022-12-22T03:05:44.236Z,21.95
2022-12-22T03:08:29.551Z,21.94
2022-12-22T03:11:15.100Z,21.94
2022-12-22T03:14:00.433Z,21.94
2022-12-22T03:16:47.803Z,21.93
2022-12-22T03:19:33.019Z,21.93
2022-12-22T03:22:18.564Z,21.92
2022-12-22T03:25:04.010Z,21.92
2022-12-22T03:27:32.279Z,21.91
2022-12-22T03:30:00.421Z,21.90
2022-12-22T03:32:29.944Z,21.90
2022-12-22T03:34:58.098Z,21.90
2022-12-22T03:37:26.213Z,21.90
2022-12-22T03:39:54.405Z,21.90
2022-12-22T03:42:39.691Z,21.88
2022-12-22T03:45:27.568Z,21.88
2022-12-22T03:47:57.089Z,21.88
2022-12-22T03:50:25.200Z,21.87
2022-12-22T03:52:53.275Z,21.88
2022-12-22T03:55:21.456Z,21.89
2022-12-22T03:57:49.522Z,21.87
2022-12-22T04:00:18.144Z,21.88
2022-12-22T04:02:46.404Z,21.87
2022-12-22T04:05:16.178Z,21.86
2022-12-22T04:07:44.359Z,21.87
2022-12-22T04:10:29.707Z,21.87
2022-12-22T04:12:57.914Z,21.86
2022-12-22T04:15:26.813Z,21.86
2022-12-22T04:17:54.988Z,21.87
2022-12-22T04:20:26.840Z,21.85
2022-12-22T04:22:55.188Z,21.84
2022-12-22T04:25:23.250Z,21.85
2022-12-22T04:27:51.385Z,21.84
2022-12-22T04:30:19.512Z,21.85
2022-12-22T04:32:47.662Z,21.84
2022-12-22T04:35:15.715Z,21.84
2022-12-22T04:37:45.198Z,21.83
2022-12-22T04:40:13.551Z,21.83
2022-12-22T04:42:41.654Z,21.81
2022-12-22T04:45:10.628Z,21.81
2022-12-22T04:47:38.769Z,21.82
2022-12-22T04:50:08.043Z,21.81
2022-12-22T04:52:36.141Z,21.81
2022-12-22T04:55:06.612Z,21.81
2022-12-22T04:57:40.282Z,21.80
2022-12-22T05:00:10.244Z,21.81
2022-12-22T05:02:38.598Z,21.79
2022-12-22T05:05:07.692Z,21.79
2022-12-22T05:07:35.848Z,21.80
2022-12-22T05:10:05.475Z,21.79
2022-12-22T05:12:51.063Z,21.81
2022-12-22T05:15:19.253Z,21.80
2022-12-22T05:17:47.330Z,21.79
2022-12-22T05:20:15.547Z,21.80
2022-12-22T05:22:43.614Z,21.81
2022-12-22T05:25:13.269Z,21.81
2022-12-22T05:27:41.384Z,21.85
2022-12-22T05:30:10.683Z,21.86
2022-12-22T05:32:38.808Z,21.87
2022-12-22T05:35:07.404Z,21.90
2022-12-22T05:37:35.548Z,21.90
2022-12-22T05:40:03.639Z,21.92
2022-12-22T05:42:39.677Z,21.92
2022-12-22T05:45:12.303Z,21.90
2022-12-22T05:47:40.492Z,21.91
2022-12-22T05:50:09.404Z,21.92
2022-12-22T05:52:37.576Z,21.94
2022-12-22T05:55:06.423Z,21.96
2022-12-22T05:57:35.913Z,21.96
2022-12-22T06:00:05.144Z,21.98
2022-12-22T06:02:40.018Z,21.98
2022-12-22T06:05:08.929Z,21.99
2022-12-22T06:07:37.004Z,22.00
2022-12-22T06:10:11.572Z,22.02
2022-12-22T06:12:42.096Z,22.02
2022-12-22T06:15:11.977Z,22.03
2022-12-22T06:17:44.666Z,22.04
2022-12-22T06:20:14.088Z,22.02
2022-12-22T06:22:42.217Z,22.04
2022-12-22T06:25:15.611Z,22.04
2022-12-22T06:27:47.795Z,22.04
2022-12-22T06:30:16.269Z,22.02
2022-12-22T06:32:44.471Z,22.01
2022-12-22T06:35:12.539Z,21.99
2022-12-22T06:37:40.647Z,22.00
2022-12-22T06:40:10.109Z,22.00
2022-12-22T06:42:55.566Z,22.01
2022-12-22T06:45:25.119Z,22.03
2022-12-22T06:47:53.236Z,22.04
2022-12-22T06:50:21.262Z,22.04
2022-12-22T06:52:49.377Z,22.00
2022-12-22T06:55:17.583Z,21.99
2022-12-22T06:57:45.679Z,21.99
2022-12-22T07:00:14.413Z,21.99
2022-12-22T07:02:44.002Z,21.98
2022-12-22T07:05:12.196Z,21.99
2022-12-22T07:07:40.258Z,21.99
2022-12-22T07:10:09.363Z,22.03
2022-12-22T07:12:37.425Z,22.05
2022-12-22T07:15:06.100Z,22.06
2022-12-22T07:17:34.139Z,22.07
2022-12-22T07:20:03.768Z,22.07
2022-12-22T07:22:31.858Z,22.07
2022-12-22T07:25:00.511Z,22.09
2022-12-22T07:27:28.593Z,22.09
2022-12-22T07:29:56.799Z,22.10
2022-12-22T07:32:24.941Z,22.10
2022-12-22T07:34:53.059Z,22.11
2022-12-22T07:37:22.549Z,22.12
2022-12-22T07:39:50.682Z,22.12
2022-12-22T07:42:35.956Z,22.13
2022-12-22T07:45:04.504Z,22.13
2022-12-22T07:47:35.526Z,22.14
2022-12-22T07:50:21.108Z,22.16
2022-12-22T07:52:50.595Z,22.16
2022-12-22T07:55:18.741Z,22.16
2022-12-22T07:57:46.835Z,22.17
2022-12-22T08:00:16.217Z,22.17
2022-12-22T08:02:46.076Z,22.20
2022-12-22T08:05:14.373Z,22.19
2022-12-22T08:07:42.461Z,22.20
2022-12-22T08:10:12.707Z,22.16
2022-12-22T08:12:40.823Z,22.17
2022-12-22T08:15:09.924Z,22.19
2022-12-22T08:17:38.090Z,22.19
2022-12-22T08:20:07.437Z,22.19
2022-12-22T08:22:35.565Z,22.21
2022-12-22T08:25:03.857Z,22.21
2022-12-22T08:27:38.236Z,22.23
2022-12-22T08:30:07.401Z,22.24
2022-12-22T08:32:35.561Z,22.25
2022-12-22T08:35:04.013Z,22.25
2022-12-22T08:37:35.091Z,22.27
2022-12-22T08:40:03.927Z,22.27
2022-12-22T08:42:33.526Z,22.27
2022-12-22T08:45:01.668Z,22.27
2022-12-22T08:47:29.984Z,22.28
2022-12-22T08:49:58.137Z,22.30
2022-12-22T08:52:26.223Z,22.30
2022-12-22T08:54:54.385Z,22.29
2022-12-22T08:57:23.253Z,22.29
2022-12-22T08:59:52.880Z,22.30
2022-12-22T09:02:21.352Z,22.31
2022-12-22T09:04:49.671Z,22.32
2022-12-22T09:07:18.505Z,22.32
2022-12-22T09:09:50.215Z,22.33
2022-12-22T09:12:21.487Z,22.36
2022-12-22T09:14:50.306Z,22.39
2022-12-22T09:17:19.883Z,22.41
2022-12-22T09:19:48.040Z,22.46
2022-12-22T09:22:19.202Z,22.50
2022-12-22T09:24:50.013Z,22.51
2022-12-22T09:27:18.122Z,22.51
2022-12-22T09:29:46.279Z,22.50
2022-12-22T09:32:14.492Z,22.50
2022-12-22T09:34:47.748Z,22.50
2022-12-22T09:37:16.812Z,22.51
2022-12-22T09:39:44.843Z,22.51
2022-12-22T09:42:14.047Z,22.51
2022-12-22T09:44:44.919Z,22.51
2022-12-22T09:47:17.739Z,22.52
2022-12-22T09:49:47.217Z,22.51
2022-12-22T09:52:23.951Z,22.52
2022-12-22T09:54:52.069Z,22.52
2022-12-22T09:57:20.253Z,22.54
2022-12-22T09:59:48.314Z,22.56
2022-12-22T10:02:23.022Z,22.58
2022-12-22T10:05:00.391Z,22.59
2022-12-22T10:07:32.087Z,22.60
2022-12-22T10:10:00.470Z,22.60
2022-12-22T10:12:28.719Z,22.59
2022-12-22T10:14:56.887Z,22.60
2022-12-22T10:17:28.187Z,22.60
2022-12-22T10:20:09.542Z,22.62
2022-12-22T10:22:41.715Z,22.63
2022-12-22T10:25:24.015Z,22.63
2022-12-22T10:27:52.120Z,22.62
2022-12-22T10:30:22.007Z,22.62
2022-12-22T10:33:11.459Z,22.60
2022-12-22T10:35:49.205Z,22.54
2022-12-22T10:38:21.211Z,22.49
2022-12-22T10:40:54.082Z,22.37
2022-12-22T10:43:25.470Z,22.35
2022-12-22T10:45:53.605Z,22.38
2022-12-22T10:48:27.735Z,22.40
2022-12-22T10:50:57.270Z,22.37
2022-12-22T10:53:42.229Z,22.34
2022-12-22T10:56:12.905Z,22.37
2022-12-22T10:58:48.987Z,22.40
2022-12-22T11:01:24.655Z,22.41
2022-12-22T11:03:52.952Z,22.44
2022-12-22T11:06:22.369Z,22.48
2022-12-22T11:08:51.897Z,22.51
2022-12-22T11:11:28.616Z,22.54
2022-12-22T11:14:01.287Z,22.54
2022-12-22T11:16:31.270Z,22.55
2022-12-22T11:19:05.413Z,22.56
2022-12-22T11:21:37.915Z,22.56
2022-12-22T11:24:12.240Z,22.56
2022-12-22T11:26:43.906Z,22.57
2022-12-22T11:29:18.923Z,22.58
2022-12-22T11:31:54.410Z,22.58
2022-12-22T11:34:30.123Z,22.58
2022-12-22T11:37:05.278Z,22.57
2022-12-22T11:39:39.853Z,22.56
2022-12-22T11:42:16.763Z,22.57
2022-12-22T11:44:48.668Z,22.57
2022-12-22T11:47:22.000Z,22.57
2022-12-22T11:51:00.181Z,22.56
2022-12-22T11:52:59.695Z,22.56
2022-12-22T11:55:31.353Z,22.56
2022-12-22T11:58:06.091Z,22.56
2022-12-22T12:01:11.865Z,22.56
2022-12-22T12:03:44.021Z,22.56
2022-12-22T12:06:35.004Z,22.57
2022-12-22T12:09:15.544Z,22.56
2022-12-22T12:11:47.939Z,22.57
2022-12-22T12:14:20.004Z,22.56
2022-12-22T12:16:51.886Z,22.56
2022-12-22T12:19:43.093Z,22.57
2022-12-22T12:22:12.977Z,22.55
2022-12-22T12:24:47.486Z,22.55
2022-12-22T12:27:23.696Z,22.53
2022-12-22T12:30:06.463Z,22.45
2022-12-22T12:32:43.667Z,22.36
2022-12-22T12:35:23.160Z,22.34
2022-12-22T12:37:52.307Z,22.34
2022-12-22T12:40:30.004Z,22.38
2022-12-22T12:42:58.718Z,22.40
2022-12-22T12:45:37.639Z,22.41
2022-12-22T12:48:43.540Z,22.43
2022-12-22T12:51:49.581Z,22.43
2022-12-22T12:54:39.611Z,22.45
2022-12-22T12:57:29.012Z,22.46
2022-12-22T12:59:57.621Z,22.47
2022-12-22T13:02:37.150Z,22.48
2022-12-22T13:05:33.033Z,22.48
2022-12-22T13:08:18.236Z,22.48
2022-12-22T13:10:51.294Z,22.49
2022-12-22T13:13:46.033Z,22.47
2022-12-22T13:16:38.472Z,22.46
2022-12-22T13:19:21.298Z,22.45
2022-12-22T13:21:54.461Z,22.42
2022-12-22T13:24:29.020Z,22.42
2022-12-22T13:27:01.800Z,22.41
2022-12-22T13:29:38.295Z,22.41
2022-12-22T13:32:17.156Z,22.40
2022-12-22T13:35:20.690Z,22.39
2022-12-22T13:37:40.635Z,22.38
2022-12-22T13:40:11.557Z,22.39
2022-12-22T13:42:40.708Z,22.39
2022-12-22T13:45:14.335Z,22.38
2022-12-22T13:47:42.999Z,22.37
2022-12-22T13:50:21.111Z,22.36
2022-12-22T13:52:49.443Z,22.36
2022-12-22T13:55:17.797Z,22.36
2022-12-22T13:57:45.939Z,22.35
2022-12-22T14:00:21.718Z,22.36
2022-12-22T14:02:50.335Z,22.34
2022-12-22T14:05:18.724Z,22.32
2022-12-22T14:08:05.233Z,22.30
2022-12-22T14:10:38.244Z,22.33
2022-12-22T14:13:08.170Z,22.35
2022-12-22T14:15:37.724Z,22.35
2022-12-22T14:18:06.686Z,22.37
2022-12-22T14:20:36.415Z,22.38
2022-12-22T14:23:07.576Z,22.39
2022-12-22T14:25:37.061Z,22.39
2022-12-22T14:28:06.172Z,22.39
2022-12-22T14:30:38.747Z,22.40
2022-12-22T14:33:18.793Z,22.39
2022-12-22T14:35:47.060Z,22.38
2022-12-22T14:38:23.441Z,22.38
2022-12-22T14:40:56.889Z,22.39
2022-12-22T14:43:30.323Z,22.39
2022-12-22T14:46:07.856Z,22.40
2022-12-22T14:48:38.057Z,22.40
2022-12-22T14:51:06.266Z,22.38
2022-12-22T14:53:39.166Z,22.39
2022-12-22T14:56:12.047Z,22.39
2022-12-22T14:58:41.344Z,22.39
2022-12-22T15:01:19.949Z,22.39
2022-12-22T15:03:59.576Z,22.39
2022-12-22T15:06:36.050Z,22.40
2022-12-22T15:10:12.950Z,22.41
2022-12-22T15:12:16.390Z,22.39
2022-12-22T15:14:47.746Z,22.31
2022-12-22T15:17:21.514Z,22.32
2022-12-22T15:19:49.734Z,22.35
2022-12-22T15:22:17.777Z,22.36
2022-12-22T15:24:47.141Z,22.39
2022-12-22T15:27:15.288Z,22.40
2022-12-22T15:29:43.362Z,22.34
2022-12-22T15:32:12.769Z,22.28
2022-12-22T15:34:42.200Z,22.24
2022-12-22T15:37:12.700Z,22.21
2022-12-22T15:39:40.910Z,22.19
2022-12-22T15:42:12.653Z,22.23
2022-12-22T15:44:40.786Z,22.28
2022-12-22T15:47:09.625Z,22.31
2022-12-22T15:49:37.732Z,22.34
2022-12-22T15:52:07.370Z,22.36
2022-12-22T15:54:35.471Z,22.37
2022-12-22T15:57:03.589Z,22.39
2022-12-22T15:59:33.078Z,22.39
2022-12-22T16:02:02.348Z,22.39
2022-12-22T16:04:30.663Z,22.39
2022-12-22T16:06:59.889Z,22.39
2022-12-22T16:09:32.633Z,22.40
2022-12-22T16:12:00.812Z,22.40
2022-12-22T16:14:32.440Z,22.41
2022-12-22T16:17:03.448Z,22.42
2022-12-22T16:19:31.689Z,22.42
2022-12-22T16:21:59.854Z,22.42
2022-12-22T16:24:30.640Z,22.43
2022-12-22T16:26:58.766Z,22.44
2022-12-22T16:29:26.914Z,22.44
2022-12-22T16:31:55.197Z,22.44
2022-12-22T16:34:23.395Z,22.44
2022-12-22T16:36:51.457Z,22.44
2022-12-22T16:39:19.556Z,22.46
2022-12-22T16:41:59.981Z,22.46
2022-12-22T16:47:18.217Z,22.48
2022-12-22T16:49:47.314Z,22.47
2022-12-22T16:52:19.455Z,22.46
2022-12-22T16:54:52.394Z,22.47
2022-12-22T16:57:22.314Z,22.47
2022-12-22T16:59:50.452Z,22.48
2022-12-22T17:02:22.565Z,22.47
2022-12-22T17:04:51.045Z,22.48
2022-12-22T17:07:19.149Z,22.48
2022-12-22T17:09:49.171Z,22.48
2022-12-22T17:12:18.112Z,22.47
2022-12-22T17:14:47.613Z,22.49
2022-12-22T17:17:17.639Z,22.53
2022-12-22T17:19:45.806Z,22.58
2022-12-22T17:22:22.516Z,22.63
2022-12-22T17:24:51.131Z,22.65
2022-12-22T17:27:20.453Z,22.68
2022-12-22T17:29:49.947Z,22.69
2022-12-22T17:32:18.076Z,22.71
2022-12-22T17:34:46.416Z,22.72
2022-12-22T17:37:14.877Z,22.75
2022-12-22T17:39:43.315Z,22.76
2022-12-22T17:42:19.645Z,22.77
2022-12-22T17:44:49.407Z,22.78
2022-12-22T17:47:18.753Z,22.79
2022-12-22T17:49:46.806Z,22.81
2022-12-22T17:52:18.648Z,22.83
2022-12-22T17:54:47.216Z,22.83
2022-12-22T17:57:17.079Z,22.80
2022-12-22T17:59:45.146Z,22.84
2022-12-22T18:02:18.595Z,22.87
2022-12-22T18:04:46.936Z,22.89
2022-12-22T18:07:21.004Z,22.91
2022-12-22T18:09:49.222Z,22.92
2022-12-22T18:12:18.885Z,22.93
2022-12-22T18:14:47.363Z,22.95
2022-12-22T18:17:29.980Z,22.95
2022-12-22T18:20:03.204Z,22.97
2022-12-22T18:22:31.408Z,22.98
2022-12-22T18:24:59.564Z,22.99
2022-12-22T18:27:28.633Z,23.00
2022-12-22T18:29:56.760Z,23.01
2022-12-22T18:32:28.064Z,23.03
2022-12-22T18:34:56.328Z,23.04
2022-12-22T18:37:24.404Z,23.06
2022-12-22T18:39:52.550Z,23.06
2022-12-22T18:42:22.136Z,23.09
2022-12-22T18:44:50.310Z,23.09
2022-12-22T18:47:18.735Z,23.10
2022-12-22T18:49:48.446Z,23.10
2022-12-22T18:52:18.005Z,23.13
2022-12-22T18:54:46.135Z,23.14
2022-12-22T18:57:15.252Z,23.10
2022-12-22T18:59:43.500Z,23.08
2022-12-22T19:02:20.685Z,23.06
2022-12-22T19:04:50.368Z,23.04
2022-12-22T19:07:19.295Z,23.03
2022-12-22T19:09:47.419Z,23.06
2022-12-22T19:12:16.594Z,23.08
2022-12-22T19:14:47.080Z,23.11
2022-12-22T19:17:15.698Z,23.13
2022-12-22T19:19:43.770Z,23.14
2022-12-22T19:22:14.548Z,23.16
2022-12-22T19:24:44.798Z,23.12
2022-12-22T19:27:14.431Z,23.08
2022-12-22T19:29:42.468Z,23.06
2022-12-22T19:32:13.354Z,23.05
2022-12-22T19:34:41.561Z,23.04
2022-12-22T19:37:09.963Z,23.04
2022-12-22T19:39:39.479Z,23.05
2022-12-22T19:42:07.600Z,23.04
2022-12-22T19:44:35.729Z,23.03
2022-12-22T19:47:03.842Z,23.03
2022-12-22T19:49:31.976Z,23.03
2022-12-22T19:52:00.177Z,23.02
2022-12-22T19:54:28.725Z,23.01
2022-12-22T19:56:58.268Z,23.01
2022-12-22T19:59:32.341Z,23.01
2022-12-22T20:02:02.500Z,22.99
2022-12-22T20:04:30.796Z,23.00
2022-12-22T20:06:58.962Z,22.98
2022-12-22T20:09:27.074Z,22.99
2022-12-22T20:11:55.191Z,22.97
2022-12-22T20:14:24.683Z,22.99
2022-12-22T20:16:52.841Z,22.99
2022-12-22T20:19:21.010Z,22.97
2022-12-22T20:21:49.140Z,22.96
2022-12-22T20:24:21.103Z,22.96
2022-12-22T20:26:54.161Z,22.96
2022-12-22T20:29:25.635Z,22.96
2022-12-22T20:31:53.797Z,22.96
2022-12-22T20:34:21.971Z,22.98
2022-12-22T20:36:50.131Z,22.97
2022-12-22T20:39:20.636Z,22.97
2022-12-22T20:41:53.437Z,22.97
2022-12-22T20:44:24.515Z,22.96
2022-12-22T20:46:52.749Z,22.97
2022-12-22T20:49:20.841Z,22.96
2022-12-22T20:51:48.901Z,22.96
2022-12-22T20:54:17.062Z,22.95
2022-12-22T20:56:45.377Z,22.96
2022-12-22T20:59:16.136Z,22.93
2022-12-22T21:01:45.923Z,22.93
2022-12-22T21:04:15.054Z,22.92
2022-12-22T21:06:45.952Z,22.93
2022-12-22T21:09:14.131Z,22.91
2022-12-22T21:11:42.364Z,22.92
2022-12-22T21:14:10.682Z,22.91
2022-12-22T21:16:38.778Z,22.90
2022-12-22T21:19:08.343Z,22.90
2022-12-22T21:21:36.567Z,22.87
2022-12-22T21:24:05.643Z,22.86
2022-12-22T21:26:34.999Z,22.85
2022-12-22T21:29:03.834Z,22.85
2022-12-22T21:31:31.937Z,22.85
2022-12-22T21:34:00.048Z,22.83
2022-12-22T21:36:30.731Z,22.83
2022-12-22T21:38:59.569Z,22.81
2022-12-22T21:41:41.762Z,22.80
2022-12-22T21:44:12.414Z,22.79
2022-12-22T21:46:40.893Z,22.79
2022-12-22T21:49:10.129Z,22.76
2022-12-22T21:51:41.031Z,22.76
2022-12-22T21:54:09.172Z,22.76
2022-12-22T21:56:37.279Z,22.75
2022-12-22T21:59:05.449Z,22.74
2022-12-22T22:01:33.670Z,22.72
2022-12-22T22:04:01.868Z,22.72
2022-12-22T22:06:29.956Z,22.71
2022-12-22T22:08:59.480Z,22.69
2022-12-22T22:11:27.667Z,22.69
2022-12-22T22:13:55.790Z,22.68
2022-12-22T22:16:23.920Z,22.69
2022-12-22T22:18:52.131Z,22.68
2022-12-22T22:21:20.203Z,22.67
2022-12-22T22:23:48.369Z,22.66
2022-12-22T22:26:17.795Z,22.64
2022-12-22T22:28:47.185Z,22.63
2022-12-22T22:31:15.513Z,22.62
2022-12-22T22:33:43.606Z,22.62
2022-12-22T22:36:11.750Z,22.61
2022-12-22T22:38:39.824Z,22.61
2022-12-22T22:41:07.970Z,22.60
2022-12-22T22:43:37.473Z,22.59
2022-12-22T22:46:06.493Z,22.57
2022-12-22T22:48:34.623Z,22.57
2022-12-22T22:51:02.750Z,22.57
2022-12-22T22:53:31.224Z,22.56
2022-12-22T22:56:02.931Z,22.55
2022-12-22T22:58:31.047Z,22.55
2022-12-22T23:01:06.670Z,22.54
2022-12-22T23:03:34.863Z,22.53
2022-12-22T23:06:03.487Z,22.53
2022-12-22T23:08:31.693Z,22.50
2022-12-22T23:10:59.730Z,22.50
2022-12-22T23:13:27.852Z,22.48
2022-12-22T23:15:56.655Z,22.47
2022-12-22T23:18:26.321Z,22.48
2022-12-22T23:20:54.408Z,22.44
2022-12-22T23:23:22.536Z,22.44
2022-12-22T23:25:51.643Z,22.44
2022-12-22T23:28:19.894Z,22.42
2022-12-22T23:30:49.934Z,22.42
2022-12-22T23:33:18.056Z,22.42
2022-12-22T23:35:48.933Z,22.42
2022-12-22T23:38:17.378Z,22.42
2022-12-22T23:40:54.462Z,22.40
2022-12-22T23:43:23.072Z,22.39
2022-12-22T23:45:51.201Z,22.39
2022-12-22T23:48:19.281Z,22.38
2022-12-22T23:50:48.707Z,22.37
2022-12-22T23:53:16.854Z,22.35
2022-12-22T23:55:45.097Z,22.36
2022-12-22T23:58:13.201Z,22.33
